Página principal
METAR-TAF:

METAR-TAF

Aeroportos :

Bermudas, Bermudas

Aeroporto Internacional L.F. Wade

latitude: 32-22N, longitude: 064-41W, altura: 6 m

Observação actual do tempo

O boletim foi feito há 17 minutos, às 12:55 UTC
Vento 18 kt de oes-noroeste
Temperatura 18°C
Humidade 56%
Pressão 1018 hPa
Visibilidade 10 km ou mais
Nuvens dispersasa uma altura de 3900 ft
Nuvens fragmentadasa uma altura de 5300 ft
aguaceiros nas vizinhanças

METAR: TXKF 191255Z 30018KT 9999 VCSH SCT039 BKN053 18/09 Q1018

Hora: 09:12 (13:12 UTC)

Previsão

O boletim foi feito há 1 hora e 40 minutos, às 11:32 UTC
Previsão válida de 19 às 12 UTC a 20 às 12 UTC
Vento 18 kt de noroeste
Visibilidade 10 km ou mais
Nuvens dispersasa uma altura de 4000 ft
Nuvens fragmentadasa uma altura de 5000 ft
aguaceiros nas vizinhanças
Tornando-se
de 20 às 09 UTC a 20 às 12 UTC
Vento 8 kt de oes-noroeste

TAF: TXKF 191132Z 1912/2012 31018KT 9999 VCSH SCT040 BKN050 BECMG 2009/2012 29008KT NSW

Observações e previsões do tempo de mais de 4000 aeroportos (mensagens METAR e TAF).

As estações disponíveis são os pontos amarelos e vermelhos sobre o mapa.

Mova o rato sobre o mapa para ver o nome da estação.

Depois clique no ponto para visualizar as observações e previsões meteorológicas.

Para alterar o mapa : clique nos botões verdes com uma cruz preta para aumentar o zoom; no botão verde com uma pitada de zoom; ou nas setas verdes para mapas adjacentes.


METAR-TAF: